Time;durP1;ratioP1;P1;durP2;ratioP2;P2;SDS_P1;SDS_P2;PMS_P1;PMS_P2;Temp;Humidity;BMP_temperature;BMP_pressure;BME280_temperature;BME280_humidity;BME280_pressure;Samples;Min_cycle;Max_cycle;Signal;HPM_P1;HPM_P2
2022/09/14 00:00:17;;;;;;;6.25;1.70;;;14.60;99.90;;;;;;3059810;19;20011;-75
2022/09/14 00:01:21;;;;;;;4.13;1.63;;;14.70;99.90;;;;;;3060337;19;20022;-75
2022/09/14 00:02:25;;;;;;;3.80;1.60;;;14.70;99.90;;;;;;3062012;19;20022;-75
2022/09/14 00:03:27;;;;;;;4.55;1.60;;;14.50;99.90;;;;;;3060482;19;20011;-75
2022/09/14 00:04:30;;;;;;;3.75;1.85;;;15.00;99.90;;;;;;3060678;19;20507;-74
2022/09/14 00:05:33;;;;;;;4.15;1.65;;;14.70;99.90;;;;;;3058519;19;20010;-75
2022/09/14 00:06:38;;;;;;;3.42;1.75;;;14.80;99.90;;;;;;3061261;19;20387;-75
2022/09/14 00:07:39;;;;;;;5.95;1.60;;;14.70;99.90;;;;;;3060949;19;20025;-75
2022/09/14 00:08:44;;;;;;;4.88;1.40;;;14.70;99.90;;;;;;3060417;19;20010;-75
2022/09/14 00:09:45;;;;;;;6.13;1.63;;;14.80;99.90;;;;;;3059893;19;20022;-76
2022/09/14 00:10:49;;;;;;;4.95;1.70;;;14.70;99.90;;;;;;3059258;19;20478;-76
2022/09/14 00:11:51;;;;;;;7.88;1.70;;;15.60;99.90;;;;;;3058494;19;20375;-75
2022/09/14 00:12:55;;;;;;;8.05;1.95;;;14.60;99.90;;;;;;3061020;19;20014;-76
2022/09/14 00:13:58;;;;;;;4.45;1.65;;;14.70;99.90;;;;;;3060209;19;20014;-76
2022/09/14 00:15:06;;;;;;;6.82;1.67;;;14.80;99.90;;;;;;3060253;19;20014;-76
2022/09/14 00:16:11;;;;;;;8.48;1.77;;;14.70;99.90;;;;;;3059993;19;20011;-75
2022/09/14 00:17:16;;;;;;;4.78;1.60;;;14.70;99.90;;;;;;3059725;19;20063;-76
2022/09/14 00:18:17;;;;;;;5.97;1.95;;;14.90;99.90;;;;;;3059174;19;20039;-75
2022/09/14 00:19:23;;;;;;;4.47;1.60;;;14.70;99.90;;;;;;3061206;19;20021;-76
2022/09/14 00:20:25;;;;;;;4.80;1.67;;;14.80;99.90;;;;;;3060585;19;20019;-75
2022/09/14 00:21:29;;;;;;;5.50;1.48;;;14.80;99.90;;;;;;3059421;19;20021;-76
2022/09/14 00:22:31;;;;;;;5.75;1.60;;;14.80;99.90;;;;;;3060439;19;20018;-75
2022/09/14 00:23:37;;;;;;;5.60;1.90;;;14.80;99.90;;;;;;3060089;19;20014;-75
2022/09/14 00:24:38;;;;;;;10.50;1.70;;;14.60;99.90;;;;;;3060097;19;20032;-75
2022/09/14 00:25:42;;;;;;;5.43;1.63;;;14.70;99.90;;;;;;3059645;19;20033;-75
2022/09/14 00:26:43;;;;;;;5.35;1.70;;;14.60;99.90;;;;;;3061262;19;20046;-76
2022/09/14 00:27:47;;;;;;;3.50;1.60;;;14.80;99.90;;;;;;3059262;19;20514;-76
2022/09/14 00:28:51;;;;;;;5.22;1.83;;;14.80;99.90;;;;;;3059544;19;20563;-75
2022/09/14 00:29:55;;;;;;;4.68;1.50;;;14.80;99.90;;;;;;3059229;19;20026;-76
2022/09/14 00:30:58;;;;;;;7.70;1.67;;;14.80;99.90;;;;;;3060880;19;20026;-75
2022/09/14 00:32:03;;;;;;;6.90;1.88;;;15.00;99.90;;;;;;3059801;19;20022;-75
2022/09/14 00:33:04;;;;;;;4.80;1.70;;;14.80;99.90;;;;;;3059834;19;20006;-76
2022/09/14 00:34:13;;;;;;;3.38;1.52;;;14.80;99.90;;;;;;3058607;19;20037;-75
2022/09/14 00:35:15;;;;;;;4.25;1.63;;;14.70;99.90;;;;;;3059982;19;20014;-75
2022/09/14 00:36:23;;;;;;;5.45;1.80;;;14.70;99.90;;;;;;3059523;19;20022;-75
2022/09/14 00:37:24;;;;;;;3.90;1.83;;;14.60;99.90;;;;;;3060317;19;20426;-75
2022/09/14 00:38:28;;;;;;;5.53;1.98;;;14.80;99.90;;;;;;3059054;19;20010;-75
2022/09/14 00:39:29;;;;;;;5.05;1.73;;;14.70;99.90;;;;;;3060589;19;20014;-76
2022/09/14 00:40:33;;;;;;;6.70;1.75;;;14.70;99.90;;;;;;3059573;19;20011;-76
2022/09/14 00:41:36;;;;;;;5.30;1.83;;;14.70;99.90;;;;;;3059878;19;20487;-75
2022/09/14 00:42:40;;;;;;;6.50;1.90;;;14.90;99.90;;;;;;3059380;19;20074;-75
2022/09/14 00:43:53;;;;;;;4.22;1.70;;;14.70;99.90;;;;;;3061491;19;20006;-75
2022/09/14 00:45:02;;;;;;;8.60;1.80;;;14.50;99.90;;;;;;3059442;19;20010;-76
2022/09/14 00:46:05;;;;;;;3.88;1.63;;;14.50;99.90;;;;;;3059251;19;20031;-75
2022/09/14 00:47:10;;;;;;;6.40;1.63;;;14.30;99.90;;;;;;3059416;19;20011;-75
2022/09/14 00:48:11;;;;;;;6.32;1.83;;;14.60;99.90;;;;;;3059571;19;20497;-75
2022/09/14 00:49:18;;;;;;;6.43;2.10;;;14.60;99.90;;;;;;3058639;19;20368;-75
2022/09/14 00:50:20;;;;;;;4.82;1.65;;;14.60;99.90;;;;;;3058504;19;20106;-75
2022/09/14 00:51:24;;;;;;;;;;;14.50;99.90;;;;;;3060472;19;20002;-74
2022/09/14 00:52:29;;;;;;;4.72;1.83;;;14.60;99.90;;;;;;3060046;19;19919;-75
2022/09/14 00:53:33;;;;;;;4.53;1.70;;;14.90;99.90;;;;;;3059738;19;20026;-76
2022/09/14 00:54:34;;;;;;;7.88;1.90;;;14.50;99.90;;;;;;3060455;19;20022;-75
2022/09/14 00:55:38;;;;;;;5.15;1.73;;;15.00;99.90;;;;;;3059869;19;20074;-75
2022/09/14 00:56:39;;;;;;;5.35;1.95;;;14.30;99.90;;;;;;3060363;19;20011;-75
2022/09/14 00:57:50;;;;;;;6.30;1.70;;;14.60;99.90;;;;;;3059809;19;20018;-74
2022/09/14 00:58:54;;;;;;;2.97;1.70;;;14.50;99.90;;;;;;3059617;19;20013;-75
2022/09/14 00:59:59;;;;;;;5.28;1.80;;;14.60;99.90;;;;;;3059484;19;20006;-75
2022/09/14 01:01:01;;;;;;;7.18;1.90;;;14.60;99.90;;;;;;3059430;19;20090;-76
2022/09/14 01:02:10;;;;;;;5.82;1.80;;;14.40;99.90;;;;;;3059516;19;20483;-75
2022/09/14 01:03:14;;;;;;;6.50;1.80;;;14.50;99.90;;;;;;3059747;19;20380;-75
2022/09/14 01:04:16;;;;;;;4.32;1.90;;;15.20;99.90;;;;;;3059405;19;20011;-75
2022/09/14 01:05:21;;;;;;;6.72;1.83;;;14.40;99.90;;;;;;3060074;19;20021;-75
2022/09/14 01:06:34;;;;;;;5.50;1.90;;;14.50;99.90;;;;;;3058642;19;20539;-75
2022/09/14 01:07:55;;;;;;;6.30;1.90;;;14.60;99.90;;;;;;3059352;19;20028;-75
2022/09/14 01:09:11;;;;;;;7.50;2.35;;;14.20;99.90;;;;;;3060122;19;20022;-75
2022/09/14 01:10:27;;;;;;;4.75;1.60;;;14.50;99.90;;;;;;3059751;19;20470;-75
2022/09/14 01:11:46;;;;;;;8.68;1.73;;;14.40;99.90;;;;;;3059529;19;20018;-75
2022/09/14 01:13:05;;;;;;;4.53;1.70;;;14.50;99.90;;;;;;3059238;19;20014;-75
2022/09/14 01:14:17;;;;;;;7.53;2.00;;;13.00;99.90;;;;;;3059316;19;20015;-75
2022/09/14 01:15:21;;;;;;;;;;;14.50;99.90;;;;;;3059681;19;20118;-75
2022/09/14 01:16:32;;;;;;;4.72;1.95;;;14.60;99.90;;;;;;3058128;19;19926;-76
2022/09/14 01:17:42;;;;;;;4.47;2.10;;;14.10;99.90;;;;;;3060104;19;20026;-75
2022/09/14 01:18:48;;;;;;;5.47;2.03;;;14.80;99.90;;;;;;3057800;19;20041;-75
2022/09/14 01:20:13;;;;;;;7.72;1.90;;;14.30;99.90;;;;;;3058765;19;20514;-75
2022/09/14 01:21:21;;;;;;;9.98;2.33;;;14.40;99.90;;;;;;3059401;19;20769;-75
2022/09/14 01:22:31;;;;;;;5.03;1.83;;;14.30;99.90;;;;;;3058178;19;20022;-75
2022/09/14 01:23:42;;;;;;;6.80;2.00;;;14.40;99.90;;;;;;3058851;19;20021;-75
2022/09/14 01:24:47;;;;;;;3.13;1.77;;;14.20;99.90;;;;;;3058400;19;20113;-75
2022/09/14 01:26:11;;;;;;;7.05;1.90;;;14.40;99.90;;;;;;3059083;19;20023;-75
2022/09/14 01:27:26;;;;;;;4.78;1.85;;;15.20;99.90;;;;;;3059747;19;20025;-76
2022/09/14 01:28:34;;;;;;;7.32;2.35;;;14.30;99.90;;;;;;3059053;19;20040;-75
2022/09/14 01:29:43;;;;;;;4.75;1.88;;;14.40;99.90;;;;;;3060141;19;20006;-75
2022/09/14 01:30:46;;;;;;;6.55;2.00;;;14.50;99.90;;;;;;3058649;19;20029;-75
2022/09/14 01:31:55;;;;;;;6.28;2.13;;;15.10;99.90;;;;;;3060699;19;20654;-75
2022/09/14 01:33:02;;;;;;;5.57;2.65;;;14.40;99.90;;;;;;3059206;19;20029;-75
2022/09/14 01:34:10;;;;;;;7.63;2.22;;;14.30;99.90;;;;;;3059795;19;20021;-75
2022/09/14 01:35:18;;;;;;;4.97;2.03;;;14.20;99.90;;;;;;3058807;19;20036;-75
2022/09/14 01:36:24;;;;;;;8.48;2.25;;;14.30;99.90;;;;;;3059394;19;20014;-75
2022/09/14 01:37:29;;;;;;;5.70;2.13;;;14.20;99.90;;;;;;3059602;19;20040;-75
2022/09/14 01:38:39;;;;;;;5.30;1.85;;;14.30;99.90;;;;;;3057921;19;20018;-75
2022/09/14 01:39:43;;;;;;;4.47;2.40;;;14.40;99.90;;;;;;3058862;19;20551;-75
2022/09/14 01:40:50;;;;;;;5.45;1.92;;;14.20;99.90;;;;;;3058320;19;20021;-75
2022/09/14 01:41:53;;;;;;;6.47;2.20;;;14.40;99.90;;;;;;3059113;19;20006;-75
2022/09/14 01:43:03;;;;;;;5.97;1.88;;;14.30;99.90;;;;;;3058461;19;20061;-75
2022/09/14 01:44:10;;;;;;;5.93;2.03;;;14.00;99.90;;;;;;3059730;19;20025;-75
2022/09/14 01:45:17;;;;;;;5.57;2.08;;;14.30;99.90;;;;;;3058659;19;20014;-75
2022/09/14 01:46:22;;;;;;;5.82;1.98;;;14.70;99.90;;;;;;3059697;19;20018;-75
2022/09/14 01:47:30;;;;;;;7.40;2.20;;;14.30;99.90;;;;;;3058320;19;20015;-75
2022/09/14 01:48:37;;;;;;;5.10;1.98;;;14.10;99.90;;;;;;3058926;19;20007;-75
2022/09/14 01:49:45;;;;;;;5.97;2.22;;;15.20;99.90;;;;;;3058741;19;20014;-75
2022/09/14 01:50:53;;;;;;;8.55;2.17;;;14.30;99.90;;;;;;3058016;19;20031;-75
2022/09/14 01:51:59;;;;;;;6.22;2.00;;;14.30;99.90;;;;;;3059237;19;20373;-75
2022/09/14 01:53:13;;;;;;;5.22;1.70;;;14.40;99.90;;;;;;3057612;19;20010;-76
2022/09/14 01:54:20;;;;;;;7.13;1.95;;;14.40;99.90;;;;;;3058876;19;20356;-75
2022/09/14 01:55:30;;;;;;;4.45;1.80;;;14.50;99.90;;;;;;3058359;19;20018;-75
2022/09/14 01:56:35;;;;;;;6.18;2.10;;;14.70;99.90;;;;;;3058329;19;20014;-75
2022/09/14 01:57:42;;;;;;;8.85;2.33;;;14.50;99.90;;;;;;3059267;19;20018;-75
2022/09/14 01:58:51;;;;;;;5.80;2.08;;;14.50;99.90;;;;;;3058449;19;20006;-75
2022/09/14 01:59:56;;;;;;;3.95;2.05;;;14.50;99.90;;;;;;3059998;19;20053;-75
2022/09/14 02:01:04;;;;;;;5.88;2.08;;;14.60;99.90;;;;;;3059554;19;20010;-75
2022/09/14 02:02:11;;;;;;;4.75;1.83;;;14.50;99.90;;;;;;3057711;19;20045;-75
2022/09/14 02:03:20;;;;;;;4.68;1.67;;;14.60;99.90;;;;;;3058846;19;20018;-75
2022/09/14 02:04:42;;;;;;;8.50;2.20;;;14.60;99.90;;;;;;3058848;19;20006;-75
2022/09/14 02:05:50;;;;;;;5.30;1.70;;;14.70;99.90;;;;;;3058487;19;20007;-75
2022/09/14 02:06:55;;;;;;;5.28;1.80;;;14.70;99.90;;;;;;3058930;19;20018;-75
2022/09/14 02:07:56;;;;;;;5.30;1.92;;;14.50;99.90;;;;;;3058454;19;20377;-75
2022/09/14 02:09:01;;;;;;;5.63;2.00;;;14.60;99.90;;;;;;3058117;19;20375;-75
2022/09/14 02:10:05;;;;;;;5.90;1.98;;;14.50;99.90;;;;;;3058493;19;20022;-75
2022/09/14 02:11:09;;;;;;;7.05;2.25;;;14.50;99.90;;;;;;3057935;19;20018;-75
2022/09/14 02:12:11;;;;;;;5.20;2.28;;;14.60;99.90;;;;;;3058310;19;20301;-75
2022/09/14 02:13:15;;;;;;;5.05;1.83;;;15.50;99.90;;;;;;3058574;19;20021;-75
2022/09/14 02:14:19;;;;;;;8.40;2.20;;;14.50;99.90;;;;;;3058514;19;20373;-75
2022/09/14 02:15:25;;;;;;;6.65;1.95;;;14.40;99.90;;;;;;3058593;19;20050;-75
2022/09/14 02:16:26;;;;;;;7.25;2.20;;;15.00;99.90;;;;;;3058171;19;20022;-75
2022/09/14 02:17:30;;;;;;;;;;;14.50;99.90;;;;;;3059606;19;20018;-75
2022/09/14 02:18:32;;;;;;;4.18;2.03;;;14.30;99.90;;;;;;3057772;19;19925;-75
2022/09/14 02:19:42;;;;;;;3.65;1.90;;;14.30;99.90;;;;;;3058616;19;20025;-75
2022/09/14 02:20:48;;;;;;;7.40;1.83;;;14.40;99.90;;;;;;3058318;19;20015;-75
2022/09/14 02:21:52;;;;;;;6.22;2.03;;;14.20;99.90;;;;;;3057765;19;20018;-75
2022/09/14 02:22:54;;;;;;;6.18;1.75;;;14.20;99.90;;;;;;3058228;19;20125;-75
2022/09/14 02:23:58;;;;;;;8.88;2.08;;;14.30;99.90;;;;;;3059317;19;20014;-75
2022/09/14 02:25:00;;;;;;;5.80;1.80;;;14.30;99.90;;;;;;3058137;19;20021;-75
2022/09/14 02:26:04;;;;;;;;;;;14.20;99.90;;;;;;3061143;19;20025;-74
2022/09/14 02:27:06;;;;;;;5.35;1.50;;;14.20;99.90;;;;;;3058220;19;19926;-75
2022/09/14 02:28:11;;;;;;;3.20;1.42;;;14.20;99.90;;;;;;3059160;19;20108;-75
2022/09/14 02:29:12;;;;;;;6.25;2.08;;;14.30;99.90;;;;;;3057914;19;20018;-75
2022/09/14 02:30:20;;;;;;;6.85;2.40;;;14.20;99.90;;;;;;3058844;19;20010;-75
2022/09/14 02:31:27;;;;;;;5.60;1.90;;;14.00;99.90;;;;;;3058490;19;20018;-75
2022/09/14 02:32:37;;;;;;;3.97;1.90;;;15.30;99.90;;;;;;3059195;19;20022;-75
2022/09/14 02:33:47;;;;;;;4.57;1.88;;;14.90;99.90;;;;;;3058163;19;20361;-75
2022/09/14 02:34:59;;;;;;;6.10;2.28;;;13.90;99.90;;;;;;3058028;19;20025;-75
2022/09/14 02:36:09;;;;;;;3.53;2.00;;;15.20;99.90;;;;;;3059164;19;20017;-75
2022/09/14 02:37:19;;;;;;;4.82;1.90;;;14.00;99.90;;;;;;3058519;19;20015;-75
2022/09/14 02:38:28;;;;;;;6.00;2.10;;;13.90;99.90;;;;;;3058167;19;20023;-75
2022/09/14 02:39:42;;;;;;;4.72;2.00;;;13.90;99.90;;;;;;3057976;19;20017;-75
2022/09/14 02:40:52;;;;;;;6.38;2.08;;;14.00;99.90;;;;;;3057535;19;20014;-75
2022/09/14 02:42:03;;;;;;;4.03;2.00;;;13.80;99.90;;;;;;3058119;19;20037;-75
2022/09/14 02:43:21;;;;;;;8.68;2.10;;;13.70;99.90;;;;;;3058471;19;20011;-75
2022/09/14 02:44:32;;;;;;;7.03;2.08;;;13.70;99.90;;;;;;3059660;19;20015;-75
2022/09/14 02:45:47;;;;;;;6.40;2.13;;;13.80;99.90;;;;;;3057504;19;20074;-75
2022/09/14 02:46:54;;;;;;;4.47;2.38;;;13.90;99.90;;;;;;3057585;19;20370;-75
2022/09/14 02:48:06;;;;;;;7.65;2.50;;;14.40;99.90;;;;;;3057875;19;20017;-75
2022/09/14 02:49:15;;;;;;;8.52;2.20;;;13.80;99.90;;;;;;3057525;19;20070;-75
2022/09/14 02:50:24;;;;;;;6.32;2.20;;;13.90;99.90;;;;;;3057070;19;20066;-75
2022/09/14 02:51:30;;;;;;;4.93;2.00;;;13.60;99.90;;;;;;3058759;19;20250;-74
2022/09/14 02:52:37;;;;;;;4.53;2.20;;;13.80;99.90;;;;;;3058178;19;20002;-75
2022/09/14 02:53:44;;;;;;;5.22;2.03;;;13.80;99.90;;;;;;3058196;19;20725;-74
2022/09/14 02:54:55;;;;;;;5.40;2.45;;;13.90;99.90;;;;;;3057782;19;20003;-74
2022/09/14 02:56:00;;;;;;;6.05;2.70;;;13.90;99.90;;;;;;3058575;19;20018;-74
2022/09/14 02:57:05;;;;;;;3.95;2.20;;;13.90;99.90;;;;;;3058396;19;20078;-74
2022/09/14 02:58:08;;;;;;;8.40;2.53;;;13.90;99.90;;;;;;3059985;19;20486;-75
2022/09/14 02:59:12;;;;;;;7.57;2.60;;;13.90;99.90;;;;;;3061018;19;20018;-75
2022/09/14 03:00:14;;;;;;;7.50;2.92;;;13.90;99.90;;;;;;3060415;19;20345;-75
2022/09/14 03:01:23;;;;;;;7.35;2.65;;;13.80;99.90;;;;;;3063290;19;20033;-75
2022/09/14 03:02:24;;;;;;;7.65;2.75;;;13.80;99.90;;;;;;3060505;19;20025;-75
2022/09/14 03:03:28;;;;;;;;;;;14.00;99.90;;;;;;3063357;19;20355;-75
2022/09/14 03:04:30;;;;;;;5.63;2.70;;;14.00;99.90;;;;;;3062754;19;19947;-75
2022/09/14 03:05:34;;;;;;;5.55;2.50;;;14.00;99.90;;;;;;3061277;19;20010;-75
2022/09/14 03:06:35;;;;;;;6.22;2.63;;;14.60;99.90;;;;;;3061154;19;20044;-75
2022/09/14 03:07:39;;;;;;;5.40;2.78;;;13.90;99.90;;;;;;3061322;19;20011;-75
2022/09/14 03:08:41;;;;;;;5.38;2.55;;;13.70;99.90;;;;;;3060959;19;20101;-75
2022/09/14 03:09:45;;;;;;;;;;;13.80;99.90;;;;;;3062131;19;20014;-75
2022/09/14 03:10:46;;;;;;;5.93;2.30;;;13.80;99.90;;;;;;3060447;19;20304;-74
2022/09/14 03:11:50;;;;;;;6.47;2.60;;;13.90;99.90;;;;;;3061089;19;20127;-74
2022/09/14 03:12:51;;;;;;;5.28;3.10;;;13.80;99.90;;;;;;3060911;19;20010;-74
2022/09/14 03:13:55;;;;;;;10.15;2.80;;;13.90;99.90;;;;;;3060524;19;20010;-74
2022/09/14 03:14:56;;;;;;;9.38;3.10;;;13.70;99.90;;;;;;3060795;19;20017;-74
2022/09/14 03:16:00;;;;;;;8.93;3.13;;;13.80;99.90;;;;;;3061034;19;20014;-75
2022/09/14 03:17:05;;;;;;;8.50;2.72;;;13.80;99.90;;;;;;3060001;19;20014;-76
2022/09/14 03:18:10;;;;;;;6.30;2.75;;;14.00;99.90;;;;;;3061200;19;20013;-76
2022/09/14 03:19:11;;;;;;;8.10;2.60;;;14.00;99.90;;;;;;3060718;19;20014;-78
2022/09/14 03:20:16;;;;;;;5.15;2.75;;;13.90;99.90;;;;;;3060948;19;20011;-77
2022/09/14 03:21:20;;;;;;;4.60;2.53;;;13.90;99.90;;;;;;3061550;19;20394;-76
2022/09/14 03:22:21;;;;;;;5.65;2.75;;;15.10;99.90;;;;;;3060421;19;20486;-76
2022/09/14 03:23:25;;;;;;;7.45;2.95;;;14.10;99.90;;;;;;3060384;19;20027;-75
2022/09/14 03:24:26;;;;;;;4.93;2.60;;;14.10;99.90;;;;;;3061303;19;20019;-75
2022/09/14 03:25:31;;;;;;;6.68;2.70;;;14.00;99.90;;;;;;3060853;19;20014;-75
2022/09/14 03:26:35;;;;;;;7.35;2.50;;;14.10;99.90;;;;;;3060486;19;20067;-75
2022/09/14 03:27:39;;;;;;;6.75;2.47;;;13.90;99.90;;;;;;3060588;19;20089;-75
2022/09/14 03:28:41;;;;;;;6.43;2.47;;;14.00;99.90;;;;;;3060732;19;20033;-75
2022/09/14 03:29:45;;;;;;;;;;;14.50;99.90;;;;;;3061423;19;20082;-75
2022/09/14 03:30:46;;;;;;;5.15;2.67;;;14.00;99.90;;;;;;3060873;19;20336;-75
2022/09/14 03:31:50;;;;;;;6.68;3.00;;;13.80;99.90;;;;;;3061086;19;20014;-76
2022/09/14 03:32:54;;;;;;;4.70;2.80;;;14.00;99.90;;;;;;3061028;19;20018;-75
2022/09/14 03:34:00;;;;;;;7.32;2.40;;;13.90;99.90;;;;;;3059217;19;20021;-75
2022/09/14 03:35:01;;;;;;;6.07;2.42;;;14.00;99.90;;;;;;3060826;19;20014;-76
2022/09/14 03:36:12;;;;;;;6.93;2.70;;;14.10;99.90;;;;;;3061530;19;20022;-75
2022/09/14 03:37:15;;;;;;;10.63;3.25;;;13.70;99.90;;;;;;3060782;19;20002;-75
2022/09/14 03:38:20;;;;;;;7.93;2.42;;;14.10;99.90;;;;;;3059944;19;20073;-75
2022/09/14 03:39:21;;;;;;;8.07;2.70;;;13.90;99.90;;;;;;3059676;19;20018;-76
2022/09/14 03:40:25;;;;;;;6.18;2.42;;;13.80;99.90;;;;;;3059982;19;20089;-76
2022/09/14 03:41:27;;;;;;;5.00;2.35;;;13.90;99.90;;;;;;3061936;19;20011;-75
2022/09/14 03:42:31;;;;;;;7.00;2.78;;;13.80;99.90;;;;;;3060093;19;20010;-75
2022/09/14 03:43:33;;;;;;;8.02;2.60;;;13.90;99.90;;;;;;3060855;19;20471;-75
2022/09/14 03:44:36;;;;;;;;;;;14.20;99.90;;;;;;3061792;19;20022;-75
2022/09/14 03:45:38;;;;;;;4.05;2.50;;;13.90;99.90;;;;;;3060412;19;19925;-76
2022/09/14 03:46:41;;;;;;;7.07;2.80;;;14.00;99.90;;;;;;3060578;19;20018;-75
2022/09/14 03:47:43;;;;;;;6.10;2.65;;;15.00;99.90;;;;;;3060641;19;20014;-75
2022/09/14 03:48:50;;;;;;;5.90;2.63;;;13.90;99.90;;;;;;3060064;19;20362;-75
2022/09/14 03:49:51;;;;;;;5.93;2.65;;;14.00;99.90;;;;;;3062169;19;20505;-75
2022/09/14 03:50:55;;;;;;;7.35;2.70;;;13.90;99.90;;;;;;3058736;19;20605;-75
2022/09/14 03:51:56;;;;;;;5.43;2.33;;;13.90;99.90;;;;;;3062047;19;20085;-75
2022/09/14 03:53:00;;;;;;;8.73;3.10;;;13.70;99.90;;;;;;3060381;19;20420;-75
2022/09/14 03:54:03;;;;;;;5.57;2.30;;;13.90;99.90;;;;;;3058961;19;20025;-75
2022/09/14 03:55:09;;;;;;;4.80;2.28;;;13.70;99.90;;;;;;3060431;19;20014;-75
2022/09/14 03:56:14;;;;;;;5.55;2.75;;;14.00;99.90;;;;;;3060291;19;20006;-75
2022/09/14 03:57:18;;;;;;;6.40;2.60;;;15.30;99.90;;;;;;3060283;19;20377;-74
2022/09/14 03:58:19;;;;;;;5.57;2.65;;;13.70;99.90;;;;;;3060014;19;20336;-75
2022/09/14 03:59:23;;;;;;;5.10;2.38;;;13.80;99.90;;;;;;3060117;19;20011;-75
2022/09/14 04:00:24;;;;;;;5.90;2.58;;;13.80;99.90;;;;;;3060224;19;20086;-75
2022/09/14 04:01:28;;;;;;;7.70;2.50;;;13.90;99.90;;;;;;3058039;19;20527;-74
2022/09/14 04:02:30;;;;;;;6.38;2.47;;;14.00;99.90;;;;;;3061223;19;20025;-75
2022/09/14 04:03:34;;;;;;;6.05;2.40;;;14.00;99.90;;;;;;3060274;19;20010;-75
2022/09/14 04:04:38;;;;;;;6.65;2.45;;;14.20;99.90;;;;;;3060330;19;20010;-75
2022/09/14 04:05:44;;;;;;;6.90;2.30;;;13.90;99.90;;;;;;3060188;19;20074;-75
2022/09/14 04:06:46;;;;;;;4.78;2.17;;;14.10;99.90;;;;;;3060095;19;20021;-75
2022/09/14 04:07:50;;;;;;;6.82;2.22;;;14.00;99.90;;;;;;3060422;19;20410;-75
2022/09/14 04:08:51;;;;;;;4.10;2.17;;;13.90;99.90;;;;;;3059972;19;20022;-75
2022/09/14 04:09:55;;;;;;;6.72;2.60;;;14.00;99.90;;;;;;3060757;19;20003;-75
2022/09/14 04:10:56;;;;;;;5.20;2.35;;;14.00;99.90;;;;;;3060045;19;20022;-75
2022/09/14 04:12:00;;;;;;;5.50;2.42;;;14.10;99.90;;;;;;3061550;19;20007;-75
2022/09/14 04:13:01;;;;;;;3.97;2.30;;;14.00;99.90;;;;;;3061918;19;20476;-75
2022/09/14 04:14:07;;;;;;;6.95;2.35;;;14.10;99.90;;;;;;3061563;19;20010;-75
2022/09/14 04:15:09;;;;;;;6.93;2.40;;;14.00;99.90;;;;;;3061432;19;20077;-76
2022/09/14 04:16:13;;;;;;;5.45;2.35;;;13.90;99.90;;;;;;3060509;19;20074;-76
2022/09/14 04:17:16;;;;;;;7.85;2.42;;;14.00;99.90;;;;;;3061728;19;20040;-75
2022/09/14 04:18:19;;;;;;;4.72;2.47;;;14.00;99.90;;;;;;3062651;19;20122;-75
2022/09/14 04:19:21;;;;;;;6.82;2.55;;;13.90;99.90;;;;;;3061834;19;20014;-75
2022/09/14 04:20:27;;;;;;;5.90;2.58;;;14.10;99.90;;;;;;3060044;19;20006;-75
2022/09/14 04:21:28;;;;;;;7.30;2.30;;;13.90;99.90;;;;;;3061168;19;20704;-74
2022/09/14 04:22:32;;;;;;;3.00;2.20;;;14.00;99.90;;;;;;3059313;19;20549;-74
2022/09/14 04:23:34;;;;;;;6.90;2.30;;;13.90;99.90;;;;;;3059276;19;20027;-75
2022/09/14 04:24:38;;;;;;;4.47;2.50;;;13.90;99.90;;;;;;3060185;19;20002;-76
2022/09/14 04:25:39;;;;;;;5.78;2.40;;;14.00;99.90;;;;;;3059632;19;20031;-75
2022/09/14 04:26:44;;;;;;;5.47;2.28;;;14.00;99.90;;;;;;3059626;19;20010;-75
2022/09/14 04:27:45;;;;;;;3.40;2.20;;;13.90;99.90;;;;;;3060865;19;20011;-75
2022/09/14 04:28:49;;;;;;;6.15;2.67;;;13.90;99.90;;;;;;3060166;19;20006;-75
2022/09/14 04:29:51;;;;;;;8.65;3.20;;;13.90;99.90;;;;;;3059713;19;20322;-75
2022/09/14 04:30:59;;;;;;;6.00;2.58;;;13.90;99.90;;;;;;3059918;19;20033;-75
2022/09/14 04:32:01;;;;;;;5.85;2.33;;;14.00;99.90;;;;;;3059841;19;20018;-75
2022/09/14 04:33:04;;;;;;;;;;;14.20;99.90;;;;;;3060631;19;20070;-75
2022/09/14 04:34:06;;;;;;;4.10;2.03;;;13.90;99.90;;;;;;3059935;19;19919;-75
2022/09/14 04:35:11;;;;;;;8.50;2.80;;;13.80;99.90;;;;;;3060041;19;20030;-75
2022/09/14 04:36:17;;;;;;;6.63;2.30;;;14.10;99.90;;;;;;3058895;19;20017;-76
2022/09/14 04:37:21;;;;;;;6.78;2.35;;;14.00;99.90;;;;;;3060892;19;20018;-75
2022/09/14 04:38:22;;;;;;;7.00;2.45;;;13.90;99.90;;;;;;3059256;19;20006;-75
2022/09/14 04:39:26;;;;;;;7.53;2.10;;;14.00;99.90;;;;;;3059846;19;20002;-74
2022/09/14 04:40:28;;;;;;;4.45;2.67;;;13.90;99.90;;;;;;3058841;19;20006;-75
2022/09/14 04:41:33;;;;;;;11.57;3.10;;;13.90;99.90;;;;;;3060128;19;20499;-75
2022/09/14 04:42:34;;;;;;;8.27;2.50;;;13.90;99.90;;;;;;3058930;19;20011;-75
2022/09/14 04:43:38;;;;;;;7.80;2.22;;;14.10;99.90;;;;;;3059807;19;20479;-74
2022/09/14 04:44:39;;;;;;;6.32;2.58;;;13.80;99.90;;;;;;3059641;19;20478;-75
2022/09/14 04:45:43;;;;;;;7.38;2.50;;;13.80;99.90;;;;;;3060004;19;20014;-75
2022/09/14 04:46:44;;;;;;;5.00;2.50;;;14.00;99.90;;;;;;3059048;19;20078;-75
2022/09/14 04:47:49;;;;;;;5.68;2.20;;;14.10;99.90;;;;;;3061480;19;20022;-75
2022/09/14 04:48:51;;;;;;;6.25;2.28;;;13.90;99.90;;;;;;3059740;19;20015;-75
2022/09/14 04:49:54;;;;;;;;;;;15.00;99.90;;;;;;3060686;19;20018;-75
2022/09/14 04:51:00;;;;;;;6.10;2.30;;;13.90;99.90;;;;;;3059194;19;19923;-75
2022/09/14 04:52:06;;;;;;;6.70;2.40;;;14.10;99.90;;;;;;3059981;19;20019;-75
2022/09/14 04:53:08;;;;;;;4.18;2.20;;;14.00;99.90;;;;;;3059367;19;20010;-75
2022/09/14 04:54:16;;;;;;;4.22;2.20;;;14.00;99.90;;;;;;3059171;19;20014;-75
2022/09/14 04:55:17;;;;;;;7.97;2.63;;;13.90;99.90;;;;;;3059410;19;20023;-75
2022/09/14 04:56:22;;;;;;;4.13;2.10;;;14.10;99.90;;;;;;3061030;19;20025;-75
2022/09/14 04:57:24;;;;;;;6.38;2.42;;;13.90;99.90;;;;;;3058806;19;20365;-75
2022/09/14 04:58:28;;;;;;;5.30;2.53;;;13.90;99.90;;;;;;3059811;19;20482;-74
2022/09/14 04:59:32;;;;;;;6.03;2.20;;;14.10;99.90;;;;;;3058471;19;20014;-74
2022/09/14 05:00:34;;;;;;;11.05;2.47;;;14.00;99.90;;;;;;3058236;19;20019;-75
2022/09/14 05:01:41;;;;;;;6.90;2.10;;;13.90;99.90;;;;;;3057304;19;20493;-75
2022/09/14 05:02:42;;;;;;;5.93;2.45;;;14.00;99.90;;;;;;3058258;19;20014;-75
2022/09/14 05:03:46;;;;;;;5.00;2.45;;;14.00;99.90;;;;;;3059514;19;20023;-75
2022/09/14 05:04:47;;;;;;;4.40;2.33;;;14.10;99.90;;;;;;3059644;19;20383;-75
2022/09/14 05:05:51;;;;;;;4.82;2.60;;;14.10;99.90;;;;;;3059461;19;20009;-75
2022/09/14 05:06:52;;;;;;;5.10;2.45;;;14.10;99.90;;;;;;3058975;19;20015;-75
2022/09/14 05:08:01;;;;;;;3.67;2.22;;;14.00;99.90;;;;;;3059435;19;20332;-75
2022/09/14 05:09:05;;;;;;;8.30;2.55;;;14.00;99.90;;;;;;3059137;19;20031;-75
2022/09/14 05:10:10;;;;;;;3.72;2.08;;;14.20;99.90;;;;;;3060219;19;20498;-75
2022/09/14 05:11:13;;;;;;;5.45;2.13;;;14.20;99.90;;;;;;3057934;19;20010;-74
2022/09/14 05:12:17;;;;;;;6.10;2.42;;;15.20;99.90;;;;;;3059969;19;20014;-75
2022/09/14 05:13:18;;;;;;;5.03;2.35;;;14.10;99.90;;;;;;3059395;19;20130;-75
2022/09/14 05:14:22;;;;;;;6.70;2.45;;;14.10;99.90;;;;;;3060198;19;20038;-75
2022/09/14 05:15:23;;;;;;;5.63;2.47;;;14.00;99.90;;;;;;3059295;19;20018;-75
2022/09/14 05:16:29;;;;;;;3.47;2.20;;;14.00;99.90;;;;;;3060093;19;20049;-75
2022/09/14 05:17:33;;;;;;;5.43;2.10;;;14.10;99.90;;;;;;3058646;19;20015;-77
2022/09/14 05:18:37;;;;;;;9.85;2.88;;;15.00;99.90;;;;;;3060455;19;20015;-76
2022/09/14 05:19:38;;;;;;;6.10;2.33;;;14.20;99.90;;;;;;3059313;19;20011;-75
2022/09/14 05:20:42;;;;;;;4.18;2.17;;;14.10;99.90;;;;;;3058113;19;20006;-75
2022/09/14 05:21:45;;;;;;;9.77;2.97;;;14.20;99.90;;;;;;3059172;19;20014;-75
2022/09/14 05:22:51;;;;;;;4.32;2.30;;;14.20;99.90;;;;;;3059809;19;20018;-75
2022/09/14 05:23:56;;;;;;;3.33;2.30;;;14.10;99.90;;;;;;3058839;19;20033;-75
2022/09/14 05:25:00;;;;;;;3.42;1.92;;;14.20;99.90;;;;;;3059272;19;20010;-74
2022/09/14 05:26:03;;;;;;;5.20;2.15;;;14.30;99.90;;;;;;3059726;19;20364;-75
2022/09/14 05:27:07;;;;;;;6.68;2.35;;;14.10;99.90;;;;;;3059962;19;20073;-75
2022/09/14 05:28:08;;;;;;;6.32;2.10;;;14.20;99.90;;;;;;3058386;19;20040;-75
2022/09/14 05:29:14;;;;;;;6.90;2.30;;;14.20;99.90;;;;;;3058229;19;20045;-75
2022/09/14 05:30:16;;;;;;;9.27;2.50;;;13.90;99.90;;;;;;3060592;19;20033;-75
2022/09/14 05:31:20;;;;;;;5.85;2.28;;;14.30;99.90;;;;;;3057780;19;20078;-75
2022/09/14 05:32:21;;;;;;;7.80;2.53;;;14.80;99.90;;;;;;3060040;19;20483;-75
2022/09/14 05:33:25;;;;;;;6.13;2.35;;;14.30;99.90;;;;;;3059480;19;20002;-75
2022/09/14 05:34:26;;;;;;;6.80;2.15;;;14.10;99.90;;;;;;3059073;19;20394;-75
2022/09/14 05:35:30;;;;;;;6.57;2.47;;;14.10;99.90;;;;;;3059571;19;20037;-75
2022/09/14 05:36:32;;;;;;;5.30;2.10;;;14.20;99.90;;;;;;3058661;19;20010;-75
2022/09/14 05:37:35;;;;;;;5.68;2.33;;;14.30;99.90;;;;;;3059425;19;20014;-75
2022/09/14 05:38:38;;;;;;;5.05;2.38;;;14.30;99.90;;;;;;3058625;19;20011;-75
2022/09/14 05:39:45;;;;;;;5.45;2.20;;;14.20;99.90;;;;;;3059112;19;20014;-74